Time;durP1;ratioP1;P1;durP2;ratioP2;P2;SDS_P1;SDS_P2;PMS_P1;PMS_P2;Temp;Humidity;BMP_temperature;BMP_pressure;BME280_temperature;BME280_humidity;BME280_pressure;Samples;Min_cycle;Max_cycle;Signal;HPM_P1;HPM_P2
2024/02/15 00:01:18;;;;;;;7.30;4.55;;;;;;;13.72;91.03;101418.22;5026089;27;98833;-75
2024/02/15 00:03:46;;;;;;;7.57;4.60;;;;;;;13.60;91.73;101418.66;5020859;27;99249;-75
2024/02/15 00:06:12;;;;;;;5.97;4.32;;;;;;;13.73;91.26;101419.94;5033153;27;97360;-75
2024/02/15 00:08:38;;;;;;;7.43;4.05;;;;;;;13.80;90.87;101422.31;5030503;27;97990;-76
2024/02/15 00:11:05;;;;;;;6.03;4.40;;;;;;;13.80;90.49;101421.44;5031267;27;99693;-75
2024/02/15 00:13:33;;;;;;;8.27;4.63;;;;;;;13.81;90.16;101418.72;5026078;27;99291;-76
2024/02/15 00:16:00;;;;;;;8.63;4.35;;;;;;;13.69;91.07;101411.22;5029384;27;97025;-75
2024/02/15 00:18:27;;;;;;;8.65;4.15;;;;;;;13.88;90.25;101406.94;5021744;27;97250;-75
2024/02/15 00:20:54;;;;;;;13.35;6.97;;;;;;;13.98;89.88;101417.22;5032105;27;99091;-75
2024/02/15 00:23:21;;;;;;;8.38;4.30;;;;;;;14.04;89.23;101411.66;5028562;27;99082;-75
2024/02/15 00:25:47;;;;;;;6.45;4.88;;;;;;;13.99;89.38;101414.47;5032288;27;97971;-77
2024/02/15 00:28:13;;;;;;;5.40;4.20;;;;;;;13.94;89.41;101419.97;5022795;27;96872;-76
2024/02/15 00:30:40;;;;;;;9.45;4.60;;;;;;;13.95;89.14;101418.19;5033738;27;98879;-76
2024/02/15 00:33:07;;;;;;;5.72;4.50;;;;;;;13.67;90.93;101410.41;5026944;27;98898;-76
2024/02/15 00:35:33;;;;;;;7.28;4.40;;;;;;;13.67;91.06;101415.72;5029616;27;97812;-75
2024/02/15 00:38:02;;;;;;;8.13;4.68;;;;;;;13.46;92.55;101408.53;5027401;27;97425;-76
2024/02/15 00:40:29;;;;;;;5.65;4.55;;;;;;;13.66;91.55;101413.13;5025230;27;101665;-75
2024/02/15 00:42:55;;;;;;;6.32;4.70;;;;;;;13.77;90.79;101406.50;5023239;27;99126;-76
2024/02/15 00:45:22;;;;;;;10.43;4.63;;;;;;;13.76;91.06;101418.03;5028998;27;96876;-76
2024/02/15 00:47:48;;;;;;;5.80;4.53;;;;;;;13.76;90.83;101412.72;5029079;27;97320;-74
2024/02/15 00:50:14;;;;;;;6.07;4.60;;;;;;;13.79;90.64;101417.91;5031569;27;98016;-75
2024/02/15 00:52:41;;;;;;;6.75;4.97;;;;;;;13.56;91.63;101423.22;5028137;27;98889;-75
2024/02/15 00:55:09;;;;;;;6.28;4.50;;;;;;;13.67;91.55;101421.03;5026397;27;97680;-75
2024/02/15 00:57:35;;;;;;;8.38;4.78;;;;;;;13.58;92.16;101421.41;5026337;27;97059;-75
2024/02/15 01:00:03;;;;;;;8.70;5.35;;;;;;;13.49;93.00;101419.06;5034271;27;99192;-77
2024/02/15 01:02:30;;;;;;;9.45;5.60;;;;;;;13.59;92.49;101414.28;5026464;27;99038;-76
2024/02/15 01:04:58;;;;;;;7.55;5.15;;;;;;;13.53;93.09;101412.72;5017319;27;97292;-75
2024/02/15 01:07:27;;;;;;;9.07;5.50;;;;;;;13.58;92.98;101408.13;5033493;27;96969;-75
2024/02/15 01:09:53;;;;;;;7.80;5.90;;;;;;;13.51;93.69;101409.25;5024400;27;99444;-75
2024/02/15 01:12:21;;;;;;;10.35;6.07;;;;;;;13.47;93.72;101411.16;5021728;27;99146;-75
2024/02/15 01:14:47;;;;;;;11.88;6.70;;;;;;;13.66;92.96;101416.63;5020476;27;98847;-75
2024/02/15 01:17:15;;;;;;;11.30;6.50;;;;;;;13.64;92.94;101421.16;5026289;27;96830;-75
2024/02/15 01:19:42;;;;;;;8.73;6.53;;;;;;;13.68;93.09;101411.28;5026625;27;99027;-75
2024/02/15 01:22:08;;;;;;;8.95;6.47;;;;;;;13.71;93.19;101412.03;5026202;27;99067;-74
2024/02/15 01:24:35;;;;;;;10.20;6.97;;;;;;;13.55;94.13;101413.53;5024984;27;96736;-74
2024/02/15 01:27:01;;;;;;;9.77;7.25;;;;;;;13.24;96.01;101405.84;5031829;27;96798;-75
2024/02/15 01:29:29;;;;;;;10.13;6.72;;;;;;;13.22;96.60;101412.97;5027636;27;101999;-74
2024/02/15 01:31:55;;;;;;;10.57;7.40;;;;;;;13.31;96.28;101406.47;5025697;27;99019;-75
2024/02/15 01:34:22;;;;;;;10.55;7.25;;;;;;;13.29;96.21;101413.63;5029742;27;97731;-75
2024/02/15 01:36:49;;;;;;;11.13;8.18;;;;;;;13.22;96.55;101412.97;5032956;27;97404;-75
2024/02/15 01:39:15;;;;;;;11.35;7.70;;;;;;;13.48;95.74;101404.06;5032684;27;99065;-75
2024/02/15 01:41:45;;;;;;;10.13;7.55;;;;;;;13.52;95.58;101411.00;5025417;27;102861;-76
2024/02/15 01:44:12;;;;;;;8.52;7.55;;;;;;;13.61;94.65;101404.47;5025913;27;97304;-76
2024/02/15 01:46:40;;;;;;;11.00;7.93;;;;;;;13.42;95.75;101409.59;5025152;27;97288;-75
2024/02/15 01:49:07;;;;;;;11.15;7.85;;;;;;;13.34;96.28;101411.66;5032386;27;98876;-76
2024/02/15 01:51:35;;;;;;;11.10;8.43;;;;;;;13.28;97.41;101401.25;5030853;27;98901;-77
2024/02/15 01:54:02;;;;;;;10.90;8.10;;;;;;;13.34;97.03;101407.22;5029739;27;96994;-76
2024/02/15 01:56:30;;;;;;;13.60;8.75;;;;;;;13.46;96.33;101409.41;5034728;27;98236;-75
2024/02/15 01:58:57;;;;;;;11.30;8.10;;;;;;;13.46;96.42;101395.28;5030327;27;99085;-75
2024/02/15 02:01:23;;;;;;;10.30;8.20;;;;;;;13.54;95.72;101398.50;5026613;27;99081;-75
2024/02/15 02:03:51;;;;;;;13.60;8.40;;;;;;;13.60;95.32;101398.28;5022214;27;97584;-75
2024/02/15 02:06:18;;;;;;;12.90;8.68;;;;;;;13.51;95.64;101388.91;5032299;27;96795;-75
2024/02/15 02:08:44;;;;;;;10.88;9.30;;;;;;;13.64;95.50;101386.63;5028210;27;99357;-75
2024/02/15 02:11:10;;;;;;;11.48;9.20;;;;;;;13.72;94.59;101387.19;5030872;27;99171;-75
2024/02/15 02:13:37;;;;;;;13.52;8.80;;;;;;;13.83;94.07;101390.31;5031105;27;96792;-75
2024/02/15 02:16:04;;;;;;;11.98;8.80;;;;;;;13.99;92.96;101393.22;5044815;27;97232;-76
2024/02/15 02:18:30;;;;;;;12.95;9.40;;;;;;;13.81;93.57;101393.94;5039569;27;98961;-75
2024/02/15 02:20:58;;;;;;;13.75;9.18;;;;;;;13.64;94.37;101389.28;5034825;27;99338;-75
2024/02/15 02:23:30;;;;;;;11.95;9.38;;;;;;;13.83;93.74;101390.31;5032135;27;97162;-75
2024/02/15 02:25:58;;;;;;;12.57;10.25;;;;;;;13.55;95.03;101401.13;5037092;27;97120;-75
2024/02/15 02:28:24;;;;;;;13.18;9.55;;;;;;;13.60;95.39;101398.28;5025675;27;99981;-75
2024/02/15 02:30:51;;;;;;;15.23;10.57;;;;;;;13.76;94.69;101388.81;5033389;27;99353;-75
2024/02/15 02:33:18;;;;;;;13.45;10.10;;;;;;;13.97;93.83;101389.78;5028048;27;96921;-76
2024/02/15 02:35:45;;;;;;;12.60;9.63;;;;;;;14.08;92.83;101402.63;5036564;27;97233;-74
2024/02/15 02:38:13;;;;;;;14.45;10.25;;;;;;;13.95;93.13;101395.16;5028052;27;99193;-75
2024/02/15 02:40:39;;;;;;;13.57;9.90;;;;;;;13.84;93.26;101389.41;5028204;27;97676;-76
2024/02/15 02:43:07;;;;;;;13.25;9.90;;;;;;;13.88;93.55;101393.66;5028298;27;96887;-77
2024/02/15 02:45:34;;;;;;;10.48;9.10;;;;;;;13.87;93.43;101385.75;5024294;27;97637;-77
2024/02/15 02:48:00;;;;;;;16.55;10.32;;;;;;;13.64;94.91;101383.97;5030579;27;97825;-77
2024/02/15 02:50:27;;;;;;;14.10;11.23;;;;;;;13.86;93.57;101390.19;5027475;27;98941;-77
2024/02/15 02:52:53;;;;;;;13.60;9.77;;;;;;;13.83;93.51;101390.31;5030825;27;96862;-77
2024/02/15 02:55:20;;;;;;;13.48;10.23;;;;;;;13.91;93.19;101393.53;5031007;27;96938;-75
2024/02/15 02:57:47;;;;;;;14.43;10.43;;;;;;;13.72;94.09;101399.63;5040810;27;99308;-76
2024/02/15 03:00:16;;;;;;;14.38;10.57;;;;;;;13.87;93.61;101396.38;5027069;27;98841;-75
2024/02/15 03:02:43;;;;;;;12.55;9.60;;;;;;;13.71;94.67;101390.78;5036138;27;96971;-74
2024/02/15 03:05:11;;;;;;;12.30;9.60;;;;;;;13.67;94.58;101399.78;5036251;27;98512;-75
2024/02/15 03:07:38;;;;;;;14.18;10.45;;;;;;;13.66;95.12;101397.19;5031259;27;99155;-75
2024/02/15 03:10:08;;;;;;;13.40;10.23;;;;;;;13.67;95.03;101397.13;5024818;27;99216;-75
2024/02/15 03:12:35;;;;;;;15.50;11.13;;;;;;;13.59;95.84;101401.03;5030645;27;97671;-76
2024/02/15 03:15:01;;;;;;;14.18;10.68;;;;;;;13.75;95.65;101394.19;5028908;27;97428;-76
2024/02/15 03:17:31;;;;;;;16.05;10.68;;;;;;;13.93;94.14;101386.38;5021628;27;99727;-76
2024/02/15 03:19:57;;;;;;;13.70;11.45;;;;;;;13.85;94.08;101391.09;5028957;27;98101;-76
2024/02/15 03:22:25;;;;;;;14.35;9.88;;;;;;;13.95;94.00;101388.97;5026673;27;100713;-74
2024/02/15 03:24:52;;;;;;;12.85;10.55;;;;;;;13.85;94.04;101392.91;5021580;27;97287;-75
2024/02/15 03:27:18;;;;;;;15.50;10.32;;;;;;;14.01;93.68;101390.50;5024433;27;102086;-76
2024/02/15 03:29:44;;;;;;;12.45;10.80;;;;;;;13.85;94.27;101391.09;5028340;27;97860;-76
2024/02/15 03:32:11;;;;;;;15.63;10.30;;;;;;;13.95;94.22;101392.50;5032204;27;96815;-74
2024/02/15 03:34:39;;;;;;;14.40;10.45;;;;;;;13.90;94.39;101394.47;5031059;27;96939;-75
2024/02/15 03:37:06;;;;;;;14.32;10.60;;;;;;;14.03;93.49;101391.34;5029474;27;100395;-76
2024/02/15 03:39:33;;;;;;;14.80;10.20;;;;;;;14.06;93.30;101392.06;5030974;27;99179;-76
2024/02/15 03:42:00;;;;;;;13.48;10.00;;;;;;;14.01;94.26;101387.84;5037702;27;96721;-76
2024/02/15 03:44:26;;;;;;;11.73;9.45;;;;;;;13.82;95.22;101398.34;5035049;27;97111;-75
2024/02/15 03:46:53;;;;;;;12.65;10.02;;;;;;;13.78;95.50;101402.91;5031714;27;98458;-76
2024/02/15 03:49:20;;;;;;;12.05;9.93;;;;;;;13.84;94.88;101397.38;5034519;27;98192;-76
2024/02/15 03:51:49;;;;;;;13.75;9.68;;;;;;;13.91;95.54;101398.84;5034011;27;98676;-76
2024/02/15 03:54:15;;;;;;;12.07;10.52;;;;;;;14.06;94.48;101396.50;5030632;27;96899;-75
2024/02/15 03:56:50;;;;;;;12.85;10.38;;;;;;;14.16;93.87;101396.09;5026756;27;98237;-76
2024/02/15 03:59:16;;;;;;;14.57;10.73;;;;;;;14.19;93.25;101403.06;5036774;27;99601;-76
2024/02/15 04:01:42;;;;;;;13.82;11.68;;;;;;;14.12;93.66;101393.59;5033551;27;96863;-76
2024/02/15 04:04:09;;;;;;;14.35;10.35;;;;;;;14.20;93.45;101397.69;5024752;27;96973;-77
2024/02/15 04:06:36;;;;;;;13.38;10.93;;;;;;;14.18;93.43;101396.00;5028751;27;98028;-78
2024/02/15 04:09:04;;;;;;;15.35;10.52;;;;;;;14.08;93.53;101395.53;5029068;27;98866;-75
2024/02/15 04:11:31;;;;;;;13.32;9.88;;;;;;;13.87;95.10;101391.91;5035828;27;96843;-76
2024/02/15 04:13:57;;;;;;;15.40;11.18;;;;;;;13.92;95.17;101397.91;5030144;27;96750;-76
2024/02/15 04:16:25;;;;;;;14.30;11.15;;;;;;;14.11;94.65;101394.56;5030001;27;97875;-76
2024/02/15 04:18:50;;;;;;;17.95;11.77;;;;;;;14.17;93.70;101397.84;5033657;27;96889;-76
2024/02/15 04:21:19;;;;;;;;;;;;;;;14.22;93.67;101394.97;5039177;27;96865;-76
2024/02/15 04:23:46;;;;;;;14.30;11.13;;;;;;;14.36;92.97;101393.50;5028635;27;98428;-76
2024/02/15 04:26:13;;;;;;;13.52;10.95;;;;;;;14.34;92.57;101392.69;5028420;27;99048;-76
2024/02/15 04:28:41;;;;;;;16.17;11.13;;;;;;;14.43;92.21;101388.84;5034790;27;98852;-76
2024/02/15 04:31:08;;;;;;;14.05;11.23;;;;;;;14.43;92.29;101399.47;5034384;27;97003;-76
2024/02/15 04:33:34;;;;;;;12.98;10.85;;;;;;;14.31;92.33;101397.25;5027934;27;97406;-77
2024/02/15 04:36:04;;;;;;;13.55;10.95;;;;;;;14.37;92.24;101391.72;5026617;27;98952;-77
2024/02/15 04:38:30;;;;;;;13.23;11.00;;;;;;;14.29;92.99;101392.03;5029614;27;99392;-76
2024/02/15 04:40:59;;;;;;;14.77;11.73;;;;;;;14.37;91.80;101391.72;5028756;27;96788;-76
2024/02/15 04:43:27;;;;;;;12.70;10.82;;;;;;;14.39;91.89;101384.56;5028698;27;97314;-77
2024/02/15 04:45:54;;;;;;;14.82;11.45;;;;;;;14.52;91.45;101382.25;5024122;27;98922;-76
2024/02/15 04:48:21;;;;;;;14.73;11.20;;;;;;;14.20;92.42;101388.84;5028748;27;98815;-76
2024/02/15 04:50:48;;;;;;;15.35;11.48;;;;;;;14.22;92.86;101397.63;5031636;27;97003;-75
2024/02/15 04:53:15;;;;;;;14.07;11.43;;;;;;;14.21;92.82;101402.09;5030295;27;97140;-75
2024/02/15 04:55:41;;;;;;;13.13;10.90;;;;;;;14.26;92.68;101393.91;5029443;27;98278;-74
2024/02/15 04:58:10;;;;;;;13.43;11.13;;;;;;;14.25;92.84;101395.72;5037672;27;99112;-74
2024/02/15 05:00:38;;;;;;;16.15;11.45;;;;;;;14.19;93.38;101395.09;5025541;27;96781;-73
2024/02/15 05:03:07;;;;;;;15.13;11.10;;;;;;;14.21;93.26;101398.56;5028599;27;97811;-75
2024/02/15 05:05:34;;;;;;;14.18;11.13;;;;;;;14.20;93.31;101396.81;5023804;27;99038;-74
2024/02/15 05:08:01;;;;;;;14.68;12.07;;;;;;;14.00;94.07;101397.63;5030390;27;99308;-74
2024/02/15 05:10:27;;;;;;;14.18;10.93;;;;;;;13.90;94.95;101397.13;5030193;27;96833;-75
2024/02/15 05:12:55;;;;;;;13.02;10.98;;;;;;;13.79;95.63;101396.66;5040369;27;98809;-75
2024/02/15 05:15:24;;;;;;;16.10;12.00;;;;;;;13.86;95.68;101411.44;5027951;27;98911;-76
2024/02/15 05:17:53;;;;;;;15.00;11.25;;;;;;;13.79;95.91;101403.75;5031705;27;99766;-76
2024/02/15 05:20:20;;;;;;;16.30;10.98;;;;;;;13.79;95.50;101404.63;5033619;27;97757;-75
2024/02/15 05:22:47;;;;;;;16.75;12.48;;;;;;;14.05;95.11;101410.72;5030051;27;97476;-76
2024/02/15 05:25:15;;;;;;;14.82;11.15;;;;;;;13.98;95.32;101409.25;5027366;27;98920;-76
2024/02/15 05:27:43;;;;;;;16.50;11.30;;;;;;;14.22;93.89;101401.16;5019239;27;99545;-75
2024/02/15 05:30:12;;;;;;;16.23;11.77;;;;;;;14.26;93.58;101401.91;5027441;27;96753;-75
2024/02/15 05:32:41;;;;;;;13.25;10.55;;;;;;;14.55;92.78;101409.59;5028012;27;97628;-75
2024/02/15 05:35:09;;;;;;;16.65;11.82;;;;;;;14.58;91.77;101398.81;5019133;27;99118;-75
2024/02/15 05:37:36;;;;;;;15.77;10.75;;;;;;;14.31;92.15;101403.44;5024479;27;99207;-76
2024/02/15 05:40:02;;;;;;;15.88;11.25;;;;;;;14.38;92.56;101403.22;5025998;27;97098;-77
2024/02/15 05:42:29;;;;;;;17.92;11.25;;;;;;;14.26;93.04;101404.56;5026518;27;98636;-75
2024/02/15 05:44:55;;;;;;;13.60;10.68;;;;;;;14.12;94.19;101412.22;5031034;27;98981;-75
2024/02/15 05:47:22;;;;;;;12.88;10.32;;;;;;;14.07;94.87;101404.44;5030869;27;99132;-75
2024/02/15 05:49:48;;;;;;;15.73;11.18;;;;;;;14.31;94.07;101403.44;5027190;27;96806;-76
2024/02/15 05:52:18;;;;;;;15.60;11.48;;;;;;;14.40;92.90;101412.88;5031359;27;97890;-76
2024/02/15 05:54:45;;;;;;;16.42;11.18;;;;;;;14.18;94.01;101411.97;5032136;27;99056;-76
2024/02/15 05:57:11;;;;;;;15.52;11.43;;;;;;;14.21;94.62;101410.06;5028121;27;98992;-75
2024/02/15 05:59:40;;;;;;;17.10;11.32;;;;;;;14.34;93.72;101411.31;5029737;27;96796;-75
2024/02/15 06:02:07;;;;;;;18.15;10.57;;;;;;;14.15;94.50;101406.78;5023665;27;96949;-76
2024/02/15 06:04:34;;;;;;;15.13;11.30;;;;;;;14.31;94.28;101405.22;5028878;27;99309;-75
2024/02/15 06:07:00;;;;;;;15.57;10.70;;;;;;;14.39;93.30;101405.81;5027590;27;99183;-75
2024/02/15 06:09:30;;;;;;;15.52;11.43;;;;;;;14.33;93.65;101406.91;5027410;27;97674;-75
2024/02/15 06:11:57;;;;;;;20.35;10.38;;;;;;;14.53;92.71;101399.94;5030573;27;96987;-76
2024/02/15 06:14:24;;;;;;;17.27;10.63;;;;;;;14.50;92.53;101405.41;5030890;27;99312;-75
2024/02/15 06:16:51;;;;;;;12.88;10.55;;;;;;;14.62;92.03;101403.09;5026604;27;99146;-75
2024/02/15 06:19:17;;;;;;;13.48;10.68;;;;;;;14.69;91.70;101414.34;5024628;27;97100;-76
2024/02/15 06:21:43;;;;;;;15.52;10.77;;;;;;;14.73;91.33;101411.47;5023131;27;97002;-75
2024/02/15 06:24:10;;;;;;;16.75;11.30;;;;;;;14.55;91.86;101411.38;5019249;27;98960;-74
2024/02/15 06:26:38;;;;;;;14.18;10.63;;;;;;;14.69;92.05;101409.91;5022966;27;97633;-74
2024/02/15 06:40:25;;;;;;;14.50;10.50;;;;;;;14.50;93.26;101427.53;5028624;27;97375;-75
2024/02/15 06:42:52;;;;;;;13.73;10.45;;;;;;;14.51;93.11;101425.72;5024992;27;96862;-75
2024/02/15 06:45:19;;;;;;;14.15;10.77;;;;;;;14.64;92.23;101427.81;5021728;27;98748;-76
2024/02/15 06:47:46;;;;;;;22.00;11.05;;;;;;;14.66;92.33;101430.41;5023188;27;101986;-76
2024/02/15 06:50:13;;;;;;;14.77;10.95;;;;;;;14.64;92.41;101432.25;5023712;27;97314;-75
2024/02/15 06:52:39;;;;;;;14.65;10.35;;;;;;;14.59;92.89;101432.47;5023689;27;98185;-74
2024/02/15 06:55:08;;;;;;;14.02;10.20;;;;;;;14.51;93.45;101444.34;5024196;27;98843;-74
2024/02/15 06:57:35;;;;;;;13.68;10.18;;;;;;;14.67;92.45;101434.81;5022723;27;99048;-74
2024/02/15 07:00:07;;;;;;;15.25;10.85;;;;;;;14.74;92.28;101444.28;5030425;27;96971;-74
2024/02/15 07:02:33;;;;;;;15.85;10.05;;;;;;;14.67;92.51;101441.00;5022751;27;96854;-75
2024/02/15 07:05:00;;;;;;;14.15;10.02;;;;;;;14.80;91.83;101452.00;5034025;27;98891;-75
2024/02/15 07:07:26;;;;;;;14.95;10.05;;;;;;;14.71;92.18;101445.25;5029879;27;97769;-75
2024/02/15 07:09:54;;;;;;;17.80;10.43;;;;;;;14.79;91.63;101446.72;5029315;27;96810;-74
2024/02/15 07:12:21;;;;;;;11.98;9.68;;;;;;;14.72;92.58;101446.13;5021728;27;97788;-75
2024/02/15 07:14:47;;;;;;;14.35;10.85;;;;;;;14.81;91.96;101444.88;5025983;27;99293;-75
2024/02/15 07:17:15;;;;;;;15.73;9.45;;;;;;;14.82;91.41;101444.81;5030248;27;98860;-75
2024/02/15 07:19:44;;;;;;;15.38;9.77;;;;;;;14.83;91.23;101456.34;5027038;27;97281;-75
2024/02/15 07:22:11;;;;;;;11.13;9.27;;;;;;;14.80;91.58;101445.81;5031778;27;97853;-75
2024/02/15 07:24:38;;;;;;;12.30;9.30;;;;;;;14.77;91.41;101452.97;5023508;27;101748;-75
2024/02/15 07:27:05;;;;;;;17.38;8.77;;;;;;;14.72;91.39;101452.31;5029858;27;101299;-74
2024/02/15 07:29:32;;;;;;;13.73;10.10;;;;;;;14.87;91.38;101444.63;5027844;27;97844;-75
2024/02/15 07:31:59;;;;;;;11.50;8.75;;;;;;;14.81;91.32;101443.09;5011872;27;99469;-75
2024/02/15 07:34:27;;;;;;;11.32;8.90;;;;;;;14.77;91.37;101453.94;5010989;27;101904;-75
2024/02/15 07:36:53;;;;;;;11.80;9.07;;;;;;;14.74;91.79;101458.44;5011269;27;99894;-75
2024/02/15 07:39:23;;;;;;;11.27;9.05;;;;;;;15.02;91.18;101454.63;5028061;27;96879;-75
2024/02/15 07:41:50;;;;;;;10.27;8.82;;;;;;;14.80;91.02;101449.34;5041562;27;97189;-76
2024/02/15 07:44:17;;;;;;;11.07;8.43;;;;;;;14.59;92.99;101452.88;5031280;27;98990;-76
2024/02/15 07:46:44;;;;;;;10.85;8.35;;;;;;;14.86;91.70;101450.88;5028375;27;98916;-75
2024/02/15 07:49:11;;;;;;;11.57;8.77;;;;;;;14.66;92.21;101452.56;5037365;27;99688;-74
2024/02/15 07:51:39;;;;;;;10.07;8.23;;;;;;;14.69;92.05;101455.13;5028859;27;96993;-75
2024/02/15 07:54:06;;;;;;;10.73;8.50;;;;;;;15.02;90.97;101447.50;5028286;27;99016;-76
2024/02/15 07:56:32;;;;;;;12.02;9.23;;;;;;;14.77;92.21;101445.94;5025785;27;99252;-75
2024/02/15 07:58:58;;;;;;;11.77;8.63;;;;;;;14.87;91.69;101449.94;5027239;27;96989;-75
2024/02/15 08:01:25;;;;;;;13.52;8.55;;;;;;;14.92;91.42;101450.59;5014481;27;98677;-75
2024/02/15 08:03:52;;;;;;;13.88;9.05;;;;;;;14.88;92.06;101457.88;5014463;27;98970;-75
2024/02/15 08:06:18;;;;;;;10.40;9.27;;;;;;;15.04;91.11;101452.75;5012567;27;99572;-75
2024/02/15 08:08:47;;;;;;;12.13;8.30;;;;;;;14.87;91.84;101457.94;5022624;27;97402;-75
2024/02/15 08:11:15;;;;;;;9.88;8.10;;;;;;;14.99;91.46;101454.75;5031759;27;97043;-75
2024/02/15 08:13:44;;;;;;;10.15;7.63;;;;;;;14.93;91.68;101455.88;5024692;27;101479;-75
2024/02/15 08:16:12;;;;;;;11.57;8.38;;;;;;;14.88;91.72;101457.00;5031029;27;97424;-75
2024/02/15 08:18:38;;;;;;;11.07;8.40;;;;;;;15.04;91.09;101445.63;5023361;27;98953;-75
2024/02/15 08:21:05;;;;;;;17.77;8.63;;;;;;;15.19;90.12;101449.44;5024296;27;97170;-75
2024/02/15 08:23:32;;;;;;;10.73;8.20;;;;;;;15.10;90.60;101455.13;5031536;27;99119;-75
2024/02/15 08:25:59;;;;;;;11.38;7.55;;;;;;;15.01;91.03;101458.22;5021319;27;98833;-76
2024/02/15 08:28:28;;;;;;;11.13;7.72;;;;;;;14.82;91.71;101457.25;5016761;27;96946;-74
2024/02/15 08:30:55;;;;;;;13.13;8.15;;;;;;;14.99;91.47;101460.06;5020317;27;98732;-74
2024/02/15 08:33:23;;;;;;;9.65;7.78;;;;;;;15.05;90.84;101459.81;5019697;27;102112;-75
2024/02/15 08:35:49;;;;;;;10.73;7.43;;;;;;;15.07;90.77;101461.47;5013219;27;101522;-75
2024/02/15 08:38:16;;;;;;;10.25;7.95;;;;;;;15.15;90.53;101469.13;5027032;27;97944;-75
2024/02/15 08:40:45;;;;;;;8.50;7.57;;;;;;;15.21;89.97;101462.69;5027340;27;97131;-75
2024/02/15 08:43:13;;;;;;;10.02;8.02;;;;;;;15.22;89.51;101462.63;5024304;27;97964;-75
2024/02/15 08:45:40;;;;;;;8.50;7.57;;;;;;;15.35;89.14;101457.63;5017021;27;100372;-74
2024/02/15 08:48:06;;;;;;;10.30;7.13;;;;;;;15.32;89.11;101461.28;5019264;27;96909;-75
2024/02/15 08:50:33;;;;;;;9.70;7.57;;;;;;;15.46;89.09;101461.53;5029736;27;97196;-75
2024/02/15 08:52:59;;;;;;;9.13;7.20;;;;;;;15.49;88.24;101450.72;5021694;27;98876;-75
2024/02/15 08:55:27;;;;;;;10.23;7.13;;;;;;;15.45;88.31;101448.28;5029537;27;99535;-76
2024/02/15 08:57:54;;;;;;;9.20;6.57;;;;;;;15.73;87.93;101459.47;5026173;27;98934;-76
2024/02/15 09:00:22;;;;;;;7.72;6.93;;;;;;;15.82;87.32;101455.50;5017666;27;98099;-75
2024/02/15 09:02:48;;;;;;;9.73;7.18;;;;;;;15.78;87.01;101461.91;5021398;27;97734;-74
2024/02/15 09:05:15;;;;;;;8.98;7.35;;;;;;;15.87;87.13;101461.50;5017280;27;99116;-76
2024/02/15 09:07:42;;;;;;;9.55;7.40;;;;;;;15.92;86.74;101462.16;5025375;27;96725;-74
2024/02/15 09:10:10;;;;;;;11.00;7.25;;;;;;;15.83;86.87;101460.75;5025089;27;97498;-74
2024/02/15 09:12:38;;;;;;;10.57;7.65;;;;;;;15.87;87.38;101461.50;5021841;27;98896;-75
2024/02/15 09:15:05;;;;;;;12.15;7.38;;;;;;;16.12;85.70;101451.41;5020727;27;97895;-75
2024/02/15 09:17:38;;;;;;;11.98;7.38;;;;;;;16.18;85.37;101453.78;5021126;27;97506;-74
2024/02/15 09:20:07;;;;;;;8.13;6.55;;;;;;;16.10;85.57;101457.75;5023372;27;98472;-74
2024/02/15 09:22:35;;;;;;;7.82;6.90;;;;;;;16.03;85.81;101462.50;5014322;27;98945;-75
2024/02/15 09:25:02;;;;;;;8.98;6.78;;;;;;;16.08;85.79;101467.66;5019166;27;98924;-75
2024/02/15 09:27:29;;;;;;;16.27;6.50;;;;;;;16.01;85.36;101469.72;5022053;27;97693;-75
2024/02/15 09:29:55;;;;;;;9.93;6.80;;;;;;;16.10;85.66;101465.75;5021401;27;97992;-75
2024/02/15 09:32:23;;;;;;;9.05;6.78;;;;;;;16.21;85.37;101461.63;5017716;27;99369;-76
2024/02/15 09:34:50;;;;;;;8.95;6.43;;;;;;;16.11;85.45;101464.81;5016768;27;98138;-75
2024/02/15 09:37:17;;;;;;;7.88;6.13;;;;;;;16.17;85.33;101464.53;5017908;27;98390;-75
2024/02/15 09:39:44;;;;;;;9.00;6.93;;;;;;;16.22;85.17;101466.03;5016851;27;99040;-75
2024/02/15 09:42:10;;;;;;;10.68;6.57;;;;;;;16.30;84.86;101471.88;5022097;27;100512;-75
2024/02/15 09:44:36;;;;;;;10.95;6.82;;;;;;;16.12;85.33;101471.88;5017744;27;100794;-74
2024/02/15 09:47:05;;;;;;;10.50;6.35;;;;;;;15.99;86.00;101476.94;5020278;27;97721;-74
2024/02/15 09:49:36;;;;;;;6.85;5.72;;;;;;;15.71;87.83;101473.78;5024253;27;98363;-75
2024/02/15 09:52:05;;;;;;;7.65;6.15;;;;;;;15.85;87.50;101471.38;5024633;27;99342;-76
2024/02/15 09:54:33;;;;;;;7.50;6.15;;;;;;;15.85;87.51;101477.56;5023850;27;97435;-75
2024/02/15 09:57:02;;;;;;;21.45;6.65;;;;;;;15.92;87.53;101486.13;5028623;27;96938;-74
2024/02/15 09:59:28;;;;;;;10.02;6.10;;;;;;;15.93;86.98;101480.75;5029231;27;97715;-75
2024/02/15 10:01:59;;;;;;;10.70;6.38;;;;;;;16.09;86.79;101482.69;5026866;27;99062;-74
2024/02/15 10:04:26;;;;;;;7.18;6.07;;;;;;;16.39;85.65;101483.06;5022335;27;97654;-75
2024/02/15 10:06:52;;;;;;;7.18;5.80;;;;;;;15.86;87.61;101491.75;5026525;27;97210;-75
2024/02/15 10:09:29;;;;;;;10.18;5.80;;;;;;;16.02;87.25;101495.44;5027111;27;96913;-74
2024/02/15 10:11:57;;;;;;;7.90;6.20;;;;;;;15.98;87.79;101484.97;5018159;27;102685;-76
2024/02/15 10:14:25;;;;;;;6.00;5.35;;;;;;;16.09;87.07;101480.88;5021749;27;101942;-74
2024/02/15 10:16:53;;;;;;;10.13;6.07;;;;;;;16.16;86.68;101485.00;5031346;27;97456;-77
2024/02/15 10:19:24;;;;;;;6.25;5.38;;;;;;;16.31;86.16;101476.28;5021755;27;97545;-75
2024/02/15 10:21:52;;;;;;;5.95;5.35;;;;;;;16.41;85.70;101473.19;5031240;27;99088;-75
2024/02/15 10:24:19;;;;;;;7.15;4.97;;;;;;;16.50;85.17;101478.06;5021854;27;101198;-76
2024/02/15 10:26:49;;;;;;;7.35;5.25;;;;;;;16.73;84.33;101486.72;5029287;27;98685;-76
2024/02/15 10:29:17;;;;;;;9.52;5.20;;;;;;;16.80;83.57;101492.63;5021437;27;97644;-75
2024/02/15 10:31:54;;;;;;;6.22;5.15;;;;;;;16.42;85.08;101482.88;5025486;27;98872;-76
2024/02/15 10:34:21;;;;;;;6.82;5.13;;;;;;;16.40;85.87;101476.78;5025539;27;99104;-74
2024/02/15 10:36:48;;;;;;;5.95;5.15;;;;;;;16.39;85.23;101475.03;5024874;27;96835;-75
2024/02/15 10:39:19;;;;;;;7.15;4.97;;;;;;;16.72;84.92;101478.78;5022759;27;99244;-75
2024/02/15 10:41:47;;;;;;;7.07;4.60;;;;;;;16.60;85.30;101468.72;5020248;27;98903;-76
2024/02/15 10:44:18;;;;;;;10.25;4.57;;;;;;;16.62;84.98;101477.47;5030264;27;99290;-74
2024/02/15 10:46:50;;;;;;;5.43;4.57;;;;;;;16.71;84.83;101471.72;5030883;27;100184;-75
2024/02/15 10:49:17;;;;;;;6.10;3.97;;;;;;;17.01;83.46;101474.63;5021457;27;97692;-74
2024/02/15 10:51:44;;;;;;;4.97;4.43;;;;;;;16.31;86.53;101473.59;5025269;27;99531;-75
2024/02/15 10:54:15;;;;;;;7.80;3.83;;;;;;;16.51;86.63;101475.31;5026387;27;98925;-75
2024/02/15 10:56:46;;;;;;;5.18;4.28;;;;;;;16.44;86.50;101473.00;5031331;27;97273;-75
2024/02/15 10:59:18;;;;;;;5.18;3.90;;;;;;;16.73;85.79;101467.16;5036199;27;96796;-75
2024/02/15 11:01:46;;;;;;;4.03;3.47;;;;;;;17.19;83.85;101473.72;5030083;27;98938;-75
2024/02/15 11:04:16;;;;;;;5.78;3.53;;;;;;;17.19;83.20;101473.72;5032881;27;99378;-74
2024/02/15 11:06:44;;;;;;;3.20;2.90;;;;;;;17.13;83.04;101477.53;5024599;27;98746;-74
2024/02/15 11:09:13;;;;;;;7.13;3.60;;;;;;;17.38;82.81;101468.28;5034745;27;99914;-74
2024/02/15 11:11:40;;;;;;;4.75;3.30;;;;;;;17.37;81.93;101464.75;5028255;27;100191;-75
2024/02/15 11:14:28;;;;;;;3.78;3.45;;;;;;;17.20;82.82;101467.41;5029462;27;98772;-76
2024/02/15 11:16:56;;;;;;;6.03;3.38;;;;;;;17.30;82.02;101466.00;5029559;27;96819;-73
2024/02/15 11:19:46;;;;;;;4.63;3.13;;;;;;;17.11;83.43;101459.88;5022284;27;97405;-75
2024/02/15 11:22:15;;;;;;;4.97;2.70;;;;;;;17.09;83.58;101457.28;5026037;27;97643;-74
2024/02/15 11:24:47;;;;;;;4.43;3.30;;;;;;;17.44;82.36;101457.28;5028352;27;98790;-74
2024/02/15 11:27:25;;;;;;;3.47;2.80;;;;;;;16.96;83.82;101456.19;5026167;27;96885;-75
2024/02/15 11:29:55;;;;;;;3.55;3.00;;;;;;;17.36;82.39;101454.13;5026452;27;98659;-76